Terminal Aerodrome Forecast
Issued by NWS

Home | Current Version | Previous Version | Text Only | Print | Product List | Glossary On
Versions: 1 2 3 4 5 6 7 8 9 10 11 12 13 14 15 16 17 18
752
FTAK31 PAJN 262328
TAFAJN
TAF
PAJN 262328Z 2700/2724 25006KT P6SM FEW020 BKN070 OVC110
     FM271100 08004KT 4SM -SN BKN025 OVC035
     FM271600 09009KT 5SM -RA BR BKN025 OVC035=

USA.gov is the U.S. government's official web portal to all federal, state and local government web resources and services.